createdAt,value
2018-04-09T00:00:20.630Z,18.97
2018-04-09T00:02:48.088Z,19.50
2018-04-09T00:05:15.552Z,19.63
2018-04-09T00:07:43.014Z,20.87
2018-04-09T00:10:10.464Z,20.30
2018-04-09T00:12:37.924Z,20.40
2018-04-09T00:15:05.370Z,19.53
2018-04-09T00:17:32.820Z,19.27
2018-04-09T00:20:00.282Z,19.77
2018-04-09T00:22:27.743Z,18.77
2018-04-09T00:24:55.203Z,19.50
2018-04-09T00:27:22.661Z,20.83
2018-04-09T00:29:50.128Z,20.80
2018-04-09T00:32:17.595Z,21.37
2018-04-09T00:34:45.044Z,20.00
2018-04-09T00:37:12.510Z,20.13
2018-04-09T00:39:39.975Z,20.70
2018-04-09T00:42:07.450Z,20.47
2018-04-09T00:44:34.890Z,20.50
2018-04-09T00:47:02.365Z,19.33
2018-04-09T00:49:29.830Z,20.73
2018-04-09T00:51:57.280Z,22.40
2018-04-09T00:54:24.719Z,20.47
2018-04-09T00:56:52.954Z,21.57
2018-04-09T00:59:20.396Z,20.67
2018-04-09T01:01:47.842Z,20.13
2018-04-09T01:04:15.287Z,23.10
2018-04-09T01:06:43.521Z,22.17
2018-04-09T01:09:11.051Z,20.77
2018-04-09T01:11:38.462Z,20.23
2018-04-09T01:14:05.930Z,22.27
2018-04-09T01:16:33.389Z,23.03
2018-04-09T01:19:00.856Z,22.07
2018-04-09T01:21:28.303Z,20.57
2018-04-09T01:23:55.763Z,19.67
2018-04-09T01:26:23.240Z,21.53
2018-04-09T01:28:50.686Z,21.43
2018-04-09T01:31:18.138Z,21.37
2018-04-09T01:33:45.583Z,21.20
2018-04-09T01:36:13.051Z,19.87
2018-04-09T01:38:41.283Z,19.80
2018-04-09T01:41:08.730Z,19.63
2018-04-09T01:43:36.227Z,21.03
2018-04-09T01:46:04.453Z,21.43
2018-04-09T01:48:31.920Z,21.17
2018-04-09T01:50:59.372Z,21.23
2018-04-09T01:53:26.848Z,21.10
2018-04-09T01:55:54.312Z,22.20
2018-04-09T01:58:21.788Z,22.47
2018-04-09T02:00:49.250Z,21.57
2018-04-09T02:03:16.717Z,21.97
2018-04-09T02:05:44.165Z,21.50
2018-04-09T02:08:11.628Z,21.70
2018-04-09T02:10:39.075Z,21.43
2018-04-09T02:13:06.597Z,20.83
2018-04-09T02:15:34.813Z,21.17
2018-04-09T02:18:02.320Z,20.33
2018-04-09T02:20:29.773Z,20.83
2018-04-09T02:22:57.227Z,21.60
2018-04-09T02:25:24.686Z,21.63
2018-04-09T02:27:52.133Z,20.53
2018-04-09T02:30:19.587Z,22.10
2018-04-09T02:32:47.034Z,22.67
2018-04-09T02:35:15.275Z,22.13
2018-04-09T02:37:42.738Z,21.23
2018-04-09T02:40:10.185Z,21.20
2018-04-09T02:42:37.672Z,21.57
2018-04-09T02:45:05.102Z,22.93
2018-04-09T02:47:32.582Z,22.43
2018-04-09T02:50:00.013Z,23.40
2018-04-09T02:52:27.500Z,22.63
2018-04-09T02:54:55.010Z,26.43
2018-04-09T02:57:22.414Z,24.20
2018-04-09T02:59:49.859Z,25.93
2018-04-09T03:02:17.346Z,27.83
2018-04-09T03:04:44.801Z,25.77
2018-04-09T03:07:12.241Z,27.13
2018-04-09T03:09:39.708Z,25.30
2018-04-09T03:12:07.172Z,27.93
2018-04-09T03:14:34.629Z,27.13
2018-04-09T03:17:02.082Z,29.97
2018-04-09T03:19:29.540Z,31.93
2018-04-09T03:21:57.775Z,26.97
2018-04-09T03:24:25.231Z,33.87
2018-04-09T03:26:53.455Z,33.07
2018-04-09T03:29:21.705Z,33.57
2018-04-09T03:31:49.154Z,30.20
2018-04-09T03:34:16.602Z,30.20
2018-04-09T03:36:44.074Z,30.43
2018-04-09T03:39:11.517Z,31.40
2018-04-09T03:41:38.972Z,30.80
2018-04-09T03:44:06.446Z,30.23
2018-04-09T03:46:33.905Z,28.73
2018-04-09T03:49:01.361Z,26.93
2018-04-09T03:51:28.822Z,25.33
2018-04-09T03:53:56.292Z,23.40
2018-04-09T03:56:23.742Z,22.33
2018-04-09T03:58:51.181Z,22.67
2018-04-09T04:01:19.428Z,22.50
2018-04-09T04:03:46.890Z,22.57
2018-04-09T04:06:14.379Z,22.43
2018-04-09T04:08:41.829Z,20.57
2018-04-09T04:11:09.291Z,22.10
2018-04-09T04:13:36.750Z,22.03
2018-04-09T04:16:17.629Z,20.97
2018-04-09T04:18:56.947Z,24.03
2018-04-09T04:21:36.308Z,23.50
2018-04-09T04:24:04.545Z,21.30
2018-04-09T04:26:31.999Z,20.43
2018-04-09T04:28:59.450Z,22.27
2018-04-09T04:31:26.910Z,21.53
2018-04-09T04:33:54.364Z,22.43
2018-04-09T04:36:21.812Z,24.37
2018-04-09T04:38:50.046Z,22.97
2018-04-09T04:41:18.269Z,22.93
2018-04-09T04:43:46.498Z,22.83
2018-04-09T04:46:13.988Z,23.63
2018-04-09T04:48:41.443Z,23.13
2018-04-09T04:51:08.894Z,22.60
2018-04-09T04:53:36.348Z,22.93
2018-04-09T04:56:03.807Z,23.47
2018-04-09T04:58:31.250Z,23.47
2018-04-09T05:00:58.715Z,23.43
2018-04-09T05:03:26.232Z,23.17
2018-04-09T05:05:53.645Z,23.83
2018-04-09T05:08:21.396Z,23.07
2018-04-09T05:10:49.617Z,24.60
2018-04-09T05:13:17.089Z,23.10
2018-04-09T05:15:44.556Z,23.47
2018-04-09T05:18:12.039Z,22.40
2018-04-09T05:20:40.319Z,23.90
2018-04-09T05:23:07.730Z,23.73
2018-04-09T05:25:35.192Z,24.40
2018-04-09T05:28:02.641Z,22.50
2018-04-09T05:30:30.081Z,26.40
2018-04-09T05:32:58.315Z,24.10
2018-04-09T05:35:25.757Z,22.83
2018-04-09T05:37:53.211Z,23.83
2018-04-09T05:40:20.678Z,22.93
2018-04-09T05:42:48.140Z,24.27
2018-04-09T05:45:15.590Z,25.23
2018-04-09T05:47:43.819Z,24.90
2018-04-09T05:50:11.278Z,26.57
2018-04-09T05:52:38.719Z,24.50
2018-04-09T05:55:06.202Z,25.67
2018-04-09T05:57:33.671Z,26.77
2018-04-09T06:00:01.124Z,25.13
2018-04-09T06:02:28.579Z,26.30
2018-04-09T06:04:56.039Z,26.40
2018-04-09T06:07:23.488Z,26.30
2018-04-09T06:09:50.951Z,25.47
2018-04-09T06:12:18.395Z,24.63
2018-04-09T06:14:45.861Z,27.13
2018-04-09T06:17:14.078Z,25.97
2018-04-09T06:19:41.542Z,27.00
2018-04-09T06:22:09.036Z,26.20
2018-04-09T06:24:36.512Z,26.40
2018-04-09T06:27:04.724Z,26.77
2018-04-09T06:29:32.192Z,28.77
2018-04-09T06:31:59.678Z,26.90
2018-04-09T06:34:27.071Z,26.07
2018-04-09T06:36:55.298Z,26.87
2018-04-09T06:39:22.776Z,27.23
2018-04-09T06:41:51.002Z,27.67
2018-04-09T06:44:19.239Z,27.40
2018-04-09T06:46:47.453Z,28.77
2018-04-09T06:49:15.701Z,27.57
2018-04-09T06:51:43.144Z,36.70
2018-04-09T06:54:10.610Z,32.70
2018-04-09T06:56:38.059Z,29.93
2018-04-09T06:59:05.521Z,29.83
2018-04-09T07:01:32.983Z,31.00
2018-04-09T07:04:00.444Z,33.23
2018-04-09T07:06:27.892Z,29.20
2018-04-09T07:08:55.356Z,30.63
2018-04-09T07:11:23.572Z,29.83
2018-04-09T07:13:51.017Z,28.27
2018-04-09T07:16:18.475Z,29.60
2018-04-09T07:18:45.940Z,29.40
2018-04-09T07:21:13.403Z,28.50
2018-04-09T07:23:40.871Z,28.50
2018-04-09T07:26:08.326Z,28.77
2018-04-09T07:28:35.779Z,29.10
2018-04-09T07:31:03.241Z,27.80
2018-04-09T07:33:32.569Z,29.67
2018-04-09T07:36:00.055Z,27.30
2018-04-09T07:38:27.575Z,27.93
2018-04-09T07:40:54.982Z,29.43
2018-04-09T07:43:22.446Z,28.57
2018-04-09T07:45:49.894Z,28.73
2018-04-09T07:48:18.120Z,29.17
2018-04-09T07:50:46.331Z,28.37
2018-04-09T07:53:13.800Z,29.53
2018-04-09T07:55:41.249Z,30.23
2018-04-09T07:58:08.702Z,29.83
2018-04-09T08:00:36.155Z,32.37
2018-04-09T08:03:04.366Z,27.97
2018-04-09T08:05:31.831Z,29.43
2018-04-09T08:07:59.313Z,30.23
2018-04-09T08:10:26.787Z,27.70
2018-04-09T08:12:54.245Z,30.87
2018-04-09T08:15:21.713Z,28.27
2018-04-09T08:17:49.187Z,31.40
2018-04-09T08:20:16.642Z,27.53
2018-04-09T08:22:44.140Z,27.67
2018-04-09T08:25:12.381Z,28.93
2018-04-09T08:27:40.610Z,27.83
2018-04-09T08:30:08.103Z,27.67
2018-04-09T08:32:35.564Z,28.37
2018-04-09T08:35:03.032Z,28.27
2018-04-09T08:37:30.508Z,28.07
2018-04-09T08:39:57.968Z,26.60
2018-04-09T08:42:25.421Z,28.63
2018-04-09T08:44:52.865Z,27.13
2018-04-09T08:47:20.340Z,29.83
2018-04-09T08:49:47.787Z,28.00
2018-04-09T08:52:15.257Z,27.67
2018-04-09T08:54:42.700Z,27.47
2018-04-09T08:57:10.173Z,27.93
2018-04-09T08:59:37.636Z,27.00
2018-04-09T09:02:05.091Z,28.40
2018-04-09T09:04:33.327Z,31.33
2018-04-09T09:07:00.781Z,28.70
2018-04-09T09:09:28.232Z,30.07
2018-04-09T09:11:55.694Z,28.13
2018-04-09T09:14:23.147Z,27.60
2018-04-09T09:16:50.605Z,27.63
2018-04-09T09:19:18.081Z,29.33
2018-04-09T09:21:45.542Z,29.67
2018-04-09T09:24:13.012Z,28.40
2018-04-09T09:26:41.231Z,29.20
2018-04-09T09:29:09.464Z,27.93
2018-04-09T09:31:36.905Z,29.93
2018-04-09T09:34:04.784Z,29.67
2018-04-09T09:36:32.251Z,28.70
2018-04-09T09:38:59.731Z,27.90
2018-04-09T09:41:27.183Z,28.23
2018-04-09T09:43:54.636Z,27.27
2018-04-09T09:46:22.862Z,27.07
2018-04-09T09:48:50.303Z,27.07
2018-04-09T09:51:17.772Z,26.90
2018-04-09T09:53:45.234Z,28.10
2018-04-09T09:56:12.694Z,27.83
2018-04-09T09:58:40.164Z,29.70
2018-04-09T10:01:09.533Z,29.00
2018-04-09T10:03:37.012Z,29.27
2018-04-09T10:06:04.466Z,29.00
2018-04-09T10:08:31.909Z,27.90
2018-04-09T10:10:59.368Z,26.50
2018-04-09T10:13:28.215Z,27.03
2018-04-09T10:15:55.674Z,26.67
2018-04-09T10:18:23.114Z,25.60
2018-04-09T10:20:50.570Z,26.50
2018-04-09T10:23:18.038Z,27.50
2018-04-09T10:25:45.525Z,27.80
2018-04-09T10:28:12.956Z,27.60
2018-04-09T10:30:40.392Z,27.73
2018-04-09T10:33:08.663Z,26.43
2018-04-09T10:35:36.066Z,24.90
2018-04-09T10:38:03.534Z,25.93
2018-04-09T10:40:30.983Z,25.13
2018-04-09T10:42:58.435Z,24.03
2018-04-09T10:45:25.890Z,24.00
2018-04-09T10:47:54.130Z,24.17
2018-04-09T10:50:21.596Z,23.43
2018-04-09T10:52:49.041Z,23.67
2018-04-09T10:55:16.500Z,23.10
2018-04-09T10:57:43.948Z,23.20
2018-04-09T11:00:11.398Z,22.63
2018-04-09T11:02:38.864Z,23.77
2018-04-09T11:05:06.337Z,23.43
2018-04-09T11:07:33.800Z,23.07
2018-04-09T11:10:01.271Z,22.47
2018-04-09T11:12:28.739Z,22.13
2018-04-09T11:14:56.187Z,21.90
2018-04-09T11:17:23.945Z,21.53
2018-04-09T11:19:51.416Z,22.37
2018-04-09T11:22:18.858Z,22.63
2018-04-09T11:24:46.307Z,22.17
2018-04-09T11:27:14.526Z,21.53
2018-04-09T11:29:41.985Z,20.37
2018-04-09T11:32:09.452Z,21.17
2018-04-09T11:34:36.894Z,20.50
2018-04-09T11:37:04.407Z,21.17
2018-04-09T11:39:31.804Z,21.90
2018-04-09T11:42:00.005Z,21.10
2018-04-09T11:44:27.479Z,20.80
2018-04-09T11:46:54.929Z,19.57
2018-04-09T11:49:22.401Z,21.07
2018-04-09T11:51:49.866Z,22.63
2018-04-09T11:54:17.368Z,21.27
2018-04-09T11:56:44.817Z,21.77
2018-04-09T11:59:12.265Z,20.60
2018-04-09T12:01:39.716Z,20.50
2018-04-09T12:04:07.161Z,19.73
2018-04-09T12:06:34.637Z,19.33
2018-04-09T12:09:02.124Z,21.03
2018-04-09T12:11:29.594Z,21.93
2018-04-09T12:13:57.054Z,20.73
2018-04-09T12:16:24.741Z,20.50
2018-04-09T12:18:52.164Z,20.20
2018-04-09T12:21:19.626Z,20.10
2018-04-09T12:23:47.099Z,20.57
2018-04-09T12:26:14.556Z,19.67
2018-04-09T12:28:42.021Z,19.13
2018-04-09T12:31:09.497Z,19.53
2018-04-09T12:33:37.718Z,20.97
2018-04-09T12:36:05.948Z,19.53
2018-04-09T12:38:33.429Z,18.40
2018-04-09T12:41:00.877Z,19.07
2018-04-09T12:43:28.339Z,18.97
2018-04-09T12:45:55.801Z,18.60
2018-04-09T12:48:23.255Z,18.13
2018-04-09T12:50:50.731Z,17.77
2018-04-09T12:53:18.193Z,17.17
2018-04-09T12:55:45.777Z,17.17
2018-04-09T12:58:13.244Z,16.93
2018-04-09T13:00:40.692Z,18.10
2018-04-09T13:03:08.145Z,16.70
2018-04-09T13:05:35.600Z,16.07
2018-04-09T13:08:03.090Z,16.03
2018-04-09T13:10:30.563Z,15.63
2018-04-09T13:12:58.001Z,16.20
2018-04-09T13:15:25.457Z,15.20
2018-04-09T13:17:52.908Z,15.43
2018-04-09T13:20:20.371Z,15.60
2018-04-09T13:22:47.832Z,15.27
2018-04-09T13:25:15.295Z,16.20
2018-04-09T13:27:42.749Z,15.57
2018-04-09T13:30:10.205Z,16.73
2018-04-09T13:32:37.712Z,16.33
2018-04-09T13:35:05.168Z,15.20
2018-04-09T13:37:32.662Z,16.30
2018-04-09T13:40:00.117Z,14.47
2018-04-09T13:42:27.582Z,14.27
2018-04-09T13:44:55.044Z,15.33
2018-04-09T13:47:22.500Z,15.10
2018-04-09T13:49:49.973Z,14.03
2018-04-09T13:52:17.421Z,15.20
2018-04-09T13:54:44.872Z,15.87
2018-04-09T13:57:12.351Z,15.17
2018-04-09T13:59:39.788Z,15.63
2018-04-09T14:02:07.248Z,15.30
2018-04-09T14:04:34.706Z,16.17
2018-04-09T14:07:02.181Z,17.20
2018-04-09T14:09:29.639Z,15.50
2018-04-09T14:11:57.100Z,15.03
2018-04-09T14:14:24.547Z,14.87
2018-04-09T14:16:52.008Z,15.67
2018-04-09T14:19:19.473Z,15.23
2018-04-09T14:21:46.923Z,16.43
2018-04-09T14:24:14.388Z,15.03
2018-04-09T14:26:41.858Z,15.67
2018-04-09T14:29:09.295Z,14.00
2018-04-09T14:31:37.521Z,15.57
2018-04-09T14:34:04.986Z,14.23
2018-04-09T14:36:32.456Z,16.03
2018-04-09T14:38:59.926Z,15.73
2018-04-09T14:41:27.404Z,16.10
2018-04-09T14:43:54.858Z,14.70
2018-04-09T14:46:22.325Z,15.13
2018-04-09T14:48:49.792Z,15.70
2018-04-09T14:51:17.258Z,16.60
2018-04-09T14:53:44.727Z,15.10
2018-04-09T14:56:12.185Z,14.83
2018-04-09T14:58:39.674Z,15.87
2018-04-09T15:01:07.124Z,15.33
2018-04-09T15:03:35.365Z,15.30
2018-04-09T15:06:02.799Z,14.60
2018-04-09T15:08:30.256Z,15.60
2018-04-09T15:10:57.721Z,15.37
2018-04-09T15:13:25.179Z,15.53
2018-04-09T15:15:52.640Z,14.60
2018-04-09T15:18:20.105Z,16.13
2018-04-09T15:20:47.549Z,15.77
2018-04-09T15:23:15.776Z,15.13
2018-04-09T15:25:43.238Z,15.00
2018-04-09T15:28:10.783Z,15.60
2018-04-09T15:30:38.226Z,15.80
2018-04-09T15:33:05.707Z,14.13
2018-04-09T15:35:33.183Z,15.20
2018-04-09T15:38:00.650Z,14.50
2018-04-09T15:40:28.109Z,14.80
2018-04-09T15:42:55.576Z,14.33
2018-04-09T15:45:23.011Z,15.37
2018-04-09T15:47:50.490Z,15.27
2018-04-09T15:50:17.942Z,15.53
2018-04-09T15:52:45.411Z,15.77
2018-04-09T15:55:12.853Z,15.33
2018-04-09T15:57:40.308Z,14.83
2018-04-09T16:00:07.789Z,13.67
2018-04-09T16:02:35.284Z,14.17
2018-04-09T16:05:03.512Z,14.37
2018-04-09T16:07:39.839Z,14.67
2018-04-09T16:10:07.306Z,14.60
2018-04-09T16:12:34.772Z,13.47
2018-04-09T16:15:02.211Z,14.27
2018-04-09T16:17:29.694Z,14.37
2018-04-09T16:19:57.166Z,14.03
2018-04-09T16:22:24.614Z,13.13
2018-04-09T16:24:52.084Z,14.20
2018-04-09T16:27:19.589Z,14.20
2018-04-09T16:29:47.020Z,13.43
2018-04-09T16:32:14.484Z,14.63
2018-04-09T16:34:41.948Z,14.23
2018-04-09T16:37:09.398Z,14.20
2018-04-09T16:39:36.861Z,14.60
2018-04-09T16:42:05.301Z,14.50
2018-04-09T16:44:32.765Z,13.33
2018-04-09T16:47:00.224Z,15.07
2018-04-09T16:49:27.705Z,14.10
2018-04-09T16:51:55.153Z,13.17
2018-04-09T16:54:22.625Z,13.63
2018-04-09T16:56:50.081Z,13.33
2018-04-09T16:59:17.561Z,14.23
2018-04-09T17:01:45.014Z,13.07
2018-04-09T17:04:12.477Z,13.53
2018-04-09T17:06:39.935Z,13.17
2018-04-09T17:09:07.723Z,13.40
2018-04-09T17:11:35.182Z,13.57
2018-04-09T17:14:02.650Z,13.70
2018-04-09T17:16:30.130Z,12.57
2018-04-09T17:18:57.574Z,13.00
2018-04-09T17:21:25.046Z,12.30
2018-04-09T17:23:52.508Z,13.27
2018-04-09T17:26:19.974Z,13.13
2018-04-09T17:28:47.429Z,12.23
2018-04-09T17:31:14.881Z,13.13
2018-04-09T17:33:42.325Z,12.10
2018-04-09T17:36:09.785Z,13.33
2018-04-09T17:38:37.250Z,13.70
2018-04-09T17:41:04.695Z,13.10
2018-04-09T17:43:32.154Z,12.10
2018-04-09T17:46:00.378Z,12.40
2018-04-09T17:48:27.841Z,13.07
2018-04-09T17:50:55.312Z,12.53
2018-04-09T17:53:22.751Z,12.43
2018-04-09T17:55:50.227Z,12.17
2018-04-09T17:58:17.725Z,12.97
2018-04-09T18:00:45.169Z,13.03
2018-04-09T18:03:12.617Z,13.13
2018-04-09T18:05:40.071Z,13.40
2018-04-09T18:08:07.557Z,12.90
2018-04-09T18:10:35.773Z,13.40
2018-04-09T18:13:04.000Z,12.77
2018-04-09T18:15:31.471Z,13.80
2018-04-09T18:17:59.693Z,13.23
2018-04-09T18:20:27.904Z,13.63
2018-04-09T18:22:55.406Z,12.50
2018-04-09T18:25:22.879Z,12.97
2018-04-09T18:27:50.361Z,12.83
2018-04-09T18:30:18.593Z,13.07
2018-04-09T18:32:46.087Z,12.87
2018-04-09T18:35:13.566Z,12.63
2018-04-09T18:37:41.795Z,13.10
2018-04-09T18:40:09.252Z,12.17
2018-04-09T18:42:36.722Z,14.17
2018-04-09T18:45:04.182Z,13.17
2018-04-09T18:47:31.669Z,13.20
2018-04-09T18:49:59.133Z,13.30
2018-04-09T18:52:26.590Z,13.67
2018-04-09T18:54:54.048Z,13.60
2018-04-09T18:57:21.491Z,13.03
2018-04-09T18:59:48.951Z,12.63
2018-04-09T19:02:16.413Z,13.07
2018-04-09T19:04:43.865Z,13.20
2018-04-09T19:07:11.340Z,13.50
2018-04-09T19:09:38.806Z,14.83
2018-04-09T19:12:06.282Z,13.17
2018-04-09T19:14:33.732Z,13.23
2018-04-09T19:17:01.189Z,12.67
2018-04-09T19:19:28.669Z,13.87
2018-04-09T19:21:56.120Z,12.73
2018-04-09T19:24:23.652Z,13.50
2018-04-09T19:26:51.942Z,13.90
2018-04-09T19:29:19.576Z,13.67
2018-04-09T19:31:47.064Z,12.90
2018-04-09T19:34:15.312Z,13.23
2018-04-09T19:36:48.469Z,13.00
2018-04-09T19:39:21.560Z,13.20
2018-04-09T19:41:49.077Z,13.33
2018-04-09T19:44:17.326Z,12.77
2018-04-09T19:46:44.847Z,13.43
2018-04-09T19:49:12.297Z,12.77
2018-04-09T19:51:40.526Z,13.20
2018-04-09T19:54:08.739Z,13.13
2018-04-09T19:56:36.206Z,13.50
2018-04-09T19:59:03.666Z,14.30
2018-04-09T20:01:31.177Z,13.40
2018-04-09T20:03:58.643Z,14.43
2018-04-09T20:06:26.127Z,13.47
2018-04-09T20:08:53.588Z,13.60
2018-04-09T20:11:21.819Z,12.83
2018-04-09T20:13:50.043Z,12.70
2018-04-09T20:16:17.495Z,13.30
2018-04-09T20:18:44.957Z,13.43
2018-04-09T20:21:12.422Z,13.63
2018-04-09T20:23:39.884Z,13.60
2018-04-09T20:26:07.357Z,12.47
2018-04-09T20:28:34.820Z,13.10
2018-04-09T20:31:02.263Z,13.60
2018-04-09T20:33:29.728Z,14.17
2018-04-09T20:35:57.215Z,13.47
2018-04-09T20:38:24.697Z,14.13
2018-04-09T20:40:52.137Z,12.97
2018-04-09T20:43:19.599Z,13.40
2018-04-09T20:45:47.808Z,14.27
2018-04-09T20:48:15.569Z,13.73
2018-04-09T20:50:43.028Z,12.57
2018-04-09T20:53:10.496Z,13.43
2018-04-09T20:55:37.943Z,13.77
2018-04-09T20:58:05.405Z,13.40
2018-04-09T21:00:32.892Z,13.83
2018-04-09T21:03:00.345Z,13.77
2018-04-09T21:05:27.813Z,12.57
2018-04-09T21:07:55.313Z,12.97
2018-04-09T21:10:22.757Z,13.23
2018-04-09T21:12:50.990Z,14.07
2018-04-09T21:15:18.452Z,13.97
2018-04-09T21:17:45.911Z,13.83
2018-04-09T21:20:13.787Z,14.13
2018-04-09T21:22:41.252Z,13.57
2018-04-09T21:25:08.699Z,13.93
2018-04-09T21:27:36.154Z,12.97
2018-04-09T21:30:03.595Z,13.87
2018-04-09T21:32:31.815Z,12.50
2018-04-09T21:34:59.273Z,13.10
2018-04-09T21:37:26.742Z,13.60
2018-04-09T21:39:54.207Z,12.13
2018-04-09T21:42:21.689Z,13.30
2018-04-09T21:44:49.148Z,13.30
2018-04-09T21:47:16.622Z,12.13
2018-04-09T21:49:44.131Z,12.20
2018-04-09T21:52:13.339Z,12.60
2018-04-09T21:54:40.814Z,12.87
2018-04-09T21:57:08.276Z,13.27
2018-04-09T21:59:35.742Z,12.50
2018-04-09T22:02:03.202Z,13.43
2018-04-09T22:04:30.658Z,12.67
2018-04-09T22:06:58.112Z,12.93
2018-04-09T22:09:25.604Z,13.37
2018-04-09T22:11:53.087Z,13.63
2018-04-09T22:14:20.529Z,14.07
2018-04-09T22:16:47.985Z,14.30
2018-04-09T22:19:15.431Z,13.10
2018-04-09T22:21:42.873Z,13.50
2018-04-09T22:24:11.120Z,12.53
2018-04-09T22:26:38.560Z,13.97
2018-04-09T22:29:06.489Z,13.60
2018-04-09T22:31:34.008Z,13.23
2018-04-09T22:34:01.487Z,12.87
2018-04-09T22:36:28.953Z,12.73
2018-04-09T22:38:56.421Z,12.70
2018-04-09T22:41:24.644Z,13.87
2018-04-09T22:43:52.132Z,13.00
2018-04-09T22:46:20.372Z,13.50
2018-04-09T22:48:47.845Z,14.00
2018-04-09T22:51:15.289Z,14.80
2018-04-09T22:53:43.518Z,14.83
2018-04-09T22:56:10.985Z,13.73
2018-04-09T22:58:39.206Z,14.73
2018-04-09T23:01:07.638Z,13.63
2018-04-09T23:03:35.102Z,14.67
2018-04-09T23:06:02.566Z,14.87
2018-04-09T23:08:30.020Z,15.00
2018-04-09T23:10:57.482Z,14.80
2018-04-09T23:13:24.955Z,15.00
2018-04-09T23:15:52.429Z,15.40
2018-04-09T23:18:19.886Z,15.40
2018-04-09T23:20:47.327Z,15.33
2018-04-09T23:23:14.800Z,14.87
2018-04-09T23:25:42.257Z,15.30
2018-04-09T23:28:09.716Z,15.77
2018-04-09T23:30:37.203Z,16.20
2018-04-09T23:33:04.677Z,16.10
2018-04-09T23:35:32.127Z,15.67
2018-04-09T23:38:00.370Z,17.13
2018-04-09T23:40:27.825Z,17.10
2018-04-09T23:42:55.300Z,17.10
2018-04-09T23:45:22.762Z,16.73
2018-04-09T23:47:50.237Z,18.10
2018-04-09T23:50:17.697Z,17.93
2018-04-09T23:52:45.181Z,16.97
2018-04-09T23:55:13.436Z,18.80
2018-04-09T23:57:40.897Z,19.57
